Bookmark and Share
Track history (hours):
 

Great

Last reported at 2014-Apr-13 17:15 UTC. Time now 2014-Apr-19 00:06 UTC.
Position N 36°28' E 024°05'.

Length 187 m; draft 10.5 m.

Type: Cargo ship. MMSI: 271042241.

NotesDate/timePositionNaut miles runAvg speedWind from/ knotsBaromVisibWave heightAir tempDewpointWater temp
2014-Apr-13 17:15N 36°28' E 024°05'911.1
2014-Apr-13 16:27N 36°29' E 024°16'1011.1
2014-Apr-13 15:33N 36°30' E 024°29'1111.2
2014-Apr-13 14:33N 36°31' E 024°43'1111.2
2014-Apr-13 13:32N 36°32' E 024°57'1110.9
2014-Apr-13 12:32N 36°33' E 025°10'1110.8
2014-Apr-13 11:33N 36°34' E 025°23'1111.0
2014-Apr-13 10:33N 36°39' E 025°36'1111.2
2014-Apr-13 09:32N 36°44' E 025°49'1111.1
2014-Apr-13 08:33N 36°48' E 026°01'  
2014-Apr-08 07:27N 36°51' E 026°11'1111.9
2014-Apr-08 06:33N 36°47' E 025°59'1211.8
2014-Apr-08 05:34N 36°42' E 025°46'1212.0
2014-Apr-08 04:32N 36°37' E 025°32'1212.1
2014-Apr-08 03:33N 36°34' E 025°18'1212.2
2014-Apr-08 02:33N 36°32' E 025°03'1212.1
2014-Apr-08 01:32N 36°30' E 024°47'1212.0
2014-Apr-08 00:31N 36°29' E 024°32'1212.1
2014-Apr-07 23:32N 36°28' E 024°18'  

Dump ship's entire track history

sailing weather and tide predictions

Great — TCYV6 — position and weather